Home > Products > Valid Products > MTR

000
SAUS44 KSHV 231957
MTRAQV
METAR KAQV 231956Z AUTO 00000KT 10SM SCT046 BKN060 32/22 A3001 RMK
AO2 SLP159 T03170217





000
SAUS44 KSHV 231956
MTRBKB
METAR KBKB 231954Z AUTO 00000KT 10SM FEW040 FEW050 33/21 A2999 RMK
AO2 SLP179 T03280206





000
SAUS44 KSHV 231956
MTRPOE
METAR KPOE 231955Z AUTO 08003KT 10SM FEW045 SCT075 SCT095 33/21
A3002 RMK AO2 SLP165 T03280211





000
SAUS44 KSHV 231857
MTRPOE
METAR KPOE 231855Z AUTO 00000KT 10SM FEW065 32/21 A3005 RMK AO2
SLP174 T03170211 $





000
SAUS44 KSHV 231857
MTRAQV
METAR KAQV 231856Z AUTO 00000KT 10SM FEW055 SCT070 32/22 A3003 RMK
AO2 SLP166 T03220222





000
SAUS44 KSHV 231856
MTRBKB
METAR KBKB 231854Z AUTO VRB03KT 10SM FEW049 SCT065 BKN085 33/22
A3002 RMK AO2 SLP189 T03330217





000
SAUS44 KSHV 231757
MTRAQV
METAR KAQV 231756Z AUTO 00000KT 10SM BKN038 BKN046 BKN055 31/22
A3005 RMK AO2 SLP174 T03060222 10328 20228 58004





000
SAUS44 KSHV 231756
MTRPOE
METAR KPOE 231755Z AUTO VRB04KT 10SM FEW038 31/21 A3006 RMK AO2
SLP178 T03060211 10317 20233 58005





000
SAUS44 KSHV 231755
MTRBKB
METAR KBKB 231754Z AUTO VRB03KT 10SM SCT038 BKN048 BKN065 32/23
A3003 RMK AO2 SLP195 T03170228 10322 20233 58006





000
SAUS44 KSHV 231658
MTRAQV
METAR KAQV 231656Z AUTO 00000KT 10SM SCT032 SCT039 31/22 A3006 RMK
AO2 SLP177 T03110217





000
SAUS44 KSHV 231656
MTRBKB
METAR KBKB 231654Z AUTO 00000KT 10SM FEW030 32/22 A3004 RMK AO2
SLP197 T03170222





000
SAUS44 KSHV 231656
MTRPOE
METAR KPOE 231655Z AUTO VRB03KT 10SM FEW033 31/22 A3007 RMK AO2
SLP181 T03060217





000
SAUS44 KSHV 231648
MTRAQV
SPECI KAQV 231646Z AUTO VRB04KT 10SM SCT029 SCT036 31/22 A3006 RMK
AO2 T03110222





000
SAUS44 KSHV 231631
MTRAQV
SPECI KAQV 231630Z AUTO 00000KT 10SM BKN029 30/22 A3007 RMK AO2
T03000222





000
SAUS44 KSHV 231559
MTRAQV
METAR KAQV 231556Z AUTO 06003KT 10SM FEW025 31/22 A3007 RMK AO2
SLP179 T03060222





000
SAUS44 KSHV 231556
MTRBKB
METAR KBKB 231554Z AUTO VRB03KT 10SM SCT023 30/22 A3005 RMK AO2
SLP200 T03000222





000
SAUS44 KSHV 231556
MTRPOE
METAR KPOE 231555Z AUTO 00000KT 10SM SCT027 29/22 A3008 RMK AO2
SLP184 T02890217





000
SAUS44 KSHV 231515
MTRBKB
SPECI KBKB 231514Z AUTO 35003KT 10SM SCT019 30/23 A3005 RMK AO2
T03000228





000
SAUS44 KSHV 231507
MTRBKB
SPECI KBKB 231505Z AUTO 00000KT 10SM BKN017 29/23 A3004 RMK AO2
T02940233





000
SAUS44 KSHV 231458
MTRAQV
METAR KAQV 231456Z AUTO 00000KT 10SM CLR 28/23 A3007 RMK AO2 SLP177
T02830228 53003





000
SAUS44 KSHV 231457
MTRPOE
METAR KPOE 231455Z AUTO 00000KT 10SM CLR 28/22 A3007 RMK AO2 SLP184
T02830222 50004





000
SAUS44 KSHV 231457 COR
MTRBKB
METAR KBKB 231454Z AUTO 00000KT 10SM SCT015 28/23 A3005 RMK AO2
SLP201 T02780228 50003





000
SAUS44 KSHV 231455
MTRBKB
METAR KBKB 231454Z AUTO 00000KT 10SM SCT015 28/23 A3005 RMK AO2
SLP201 T02780228 50003





000
SAUS44 KSHV 231358
MTRAQV
METAR KAQV 231356Z AUTO VRB03KT 9SM CLR 27/23 A3006 RMK AO2 SLP176
T02670228





000
SAUS44 KSHV 231356
MTRPOE
METAR KPOE 231355Z AUTO 10004KT 10SM CLR 27/22 A3008 RMK AO2 SLP185
T02720222





000
SAUS44 KSHV 231355
MTRBKB
METAR KBKB 231354Z AUTO 00000KT 10SM CLR 27/23 A3005 RMK AO2 SLP201
T02720228





000
SAUS44 KSHV 231258
MTRAQV
METAR KAQV 231256Z AUTO 00000KT 7SM CLR 25/23 A3005 RMK AO2 SLP173
T02500228





000
SAUS44 KSHV 231257
MTRPOE
METAR KPOE 231255Z AUTO 00000KT 10SM CLR 26/22 A3006 RMK AO2 SLP180
T02560222





000
SAUS44 KSHV 231255
MTRBKB
METAR KBKB 231254Z AUTO 00000KT 9SM CLR 26/23 A3004 RMK AO2 SLP199
T02610228





000
SAUS44 KSHV 231158
MTRAQV
METAR KAQV 231156Z AUTO 00000KT 3SM BR CLR 23/22 A3005 RMK AO2
SLP174 T02280217 10244 20222 51008





000
SAUS44 KSHV 231156
MTRPOE
METAR KPOE 231155Z AUTO 00000KT 9SM CLR 23/22 A3006 RMK AO2 SLP180
7//// T02330222 10261 20222 51010





000
SAUS44 KSHV 231155
MTRBKB
METAR KBKB 231154Z AUTO 00000KT 5SM BR CLR 23/21 A3004 RMK AO2
SLP198 T02330211 10250 20228 51011





000
SAUS44 KSHV 231057
MTRAQV
METAR KAQV 231056Z AUTO 00000KT 4SM BR CLR 22/22 A3005 RMK AO2
SLP172 T02220217





000
SAUS44 KSHV 231056
MTRPOE
METAR KPOE 231055Z AUTO 00000KT 10SM CLR 23/22 A3006 RMK AO2 SLP178
T02280217





000
SAUS44 KSHV 231055
MTRBKB
METAR KBKB 231054Z AUTO 00000KT 6SM BR CLR 23/21 A3003 RMK AO2
SLP195 T02280211





000
SAUS44 KSHV 230957
MTRAQV
METAR KAQV 230956Z AUTO 00000KT 6SM BR CLR 23/22 A3004 RMK AO2
SLP170 T02280217





000
SAUS44 KSHV 230956
MTRPOE
METAR KPOE 230955Z AUTO 00000KT 10SM CLR 23/22 A3004 RMK AO2 SLP173
T02280217





000
SAUS44 KSHV 230955
MTRBKB
METAR KBKB 230954Z AUTO 00000KT 6SM BR CLR 23/21 A3002 RMK AO2
SLP191 T02330211





000
SAUS44 KSHV 230857
MTRAQV
METAR KAQV 230856Z AUTO 00000KT 5SM BR CLR 23/22 A3003 RMK AO2
SLP165 T02280217 55000





000
SAUS44 KSHV 230856
MTRPOE
METAR KPOE 230855Z AUTO 00000KT 10SM CLR 23/22 A3003 RMK AO2 SLP170
T02330222 55000





000
SAUS44 KSHV 230856
MTRBKB
METAR KBKB 230854Z AUTO 00000KT 10SM CLR 23/22 A3001 RMK AO2 SLP187
T02330217 55001





000
SAUS44 KSHV 230757
MTRPOE
METAR KPOE 230755Z AUTO 00000KT 10SM CLR 24/22 A3003 RMK AO2 SLP168
T02390222





000
SAUS44 KSHV 230757
MTRAQV
METAR KAQV 230756Z AUTO 00000KT 5SM BR CLR 23/22 A3002 RMK AO2
SLP162 T02330222





000
SAUS44 KSHV 230755
MTRBKB
METAR KBKB 230754Z AUTO 00000KT 10SM CLR 24/22 A3000 RMK AO2 SLP185
T02440222





000
SAUS44 KSHV 230658
MTRAQV
METAR KAQV 230656Z AUTO 00000KT 6SM BR CLR 23/22 A3003 RMK AO2
SLP166 T02330222





000
SAUS44 KSHV 230656
MTRPOE
METAR KPOE 230655Z AUTO 00000KT 10SM CLR 24/22 A3003 RMK AO2 SLP170
T02440222





000
SAUS44 KSHV 230655
MTRBKB
METAR KBKB 230654Z AUTO 00000KT 8SM CLR 24/22 A3001 RMK AO2 SLP187
T02390222





000
SAUS44 KSHV 230558
MTRAQV
METAR KAQV 230556Z AUTO 00000KT 8SM CLR 24/23 A3003 RMK AO2 SLP165
T02440228 10294 20244 403280211 50000





000
SAUS44 KSHV 230556
MTRPOE
METAR KPOE 230555Z AUTO 09003KT 10SM CLR 25/22 A3003 RMK AO2 SLP170
T02500222 10300 20250 50000





000
SAUS44 KSHV 230555
MTRBKB
METAR KBKB 230554Z AUTO 00000KT 10SM CLR 25/23 A3001 RMK AO2 SLP188
T02500228 10317 20250 403330222 50000





000
SAUS44 KSHV 230457
MTRAQV
METAR KAQV 230456Z AUTO 00000KT 8SM CLR 24/23 A3004 RMK AO2 SLP167
T02440233





000
SAUS44 KSHV 230456
MTRBKB
METAR KBKB 230454Z AUTO 00000KT 10SM CLR 26/22 A3002 RMK AO2 SLP191
T02610222





000
SAUS44 KSHV 230456
MTRPOE
METAR KPOE 230455Z AUTO 08005KT 10SM FEW045 BKN055 BKN065 26/22
A3005 RMK AO2 SLP174 T02610222 403220228





000
SAUS44 KSHV 230357
MTRAQV
METAR KAQV 230356Z AUTO 00000KT 8SM CLR 25/23 A3004 RMK AO2 SLP168
T02500233





000
SAUS44 KSHV 230356
MTRPOE
METAR KPOE 230355Z AUTO 04003KT 10SM CLR 26/22 A3004 RMK AO2 SLP173
T02560222





000
SAUS44 KSHV 230356
MTRPOE
METAR KPOE 230355Z AUTO 04003KT 10SM CLR 26/22 A3004 RMK AO2 SLP173
T02560222





000
SAUS44 KSHV 230355
MTRBKB
METAR KBKB 230354Z AUTO 00000KT 10SM FEW050 SCT060 26/23 A3002 RMK
AO2 SLP191 T02610233





000
SAUS44 KSHV 230355
MTRBKB
METAR KBKB 230354Z AUTO 00000KT 10SM FEW050 SCT060 26/23 A3002 RMK
AO2 SLP191 T02610233





000
SAUS44 KSHV 230258
MTRAQV
METAR KAQV 230256Z AUTO 00000KT 9SM CLR 25/23 A3003 RMK AO2 SLP165
T02500233 53007





000
SAUS44 KSHV 230257
MTRPOE
METAR KPOE 230255Z AUTO 03004KT 10SM CLR 26/22 A3003 RMK AO2 SLP170
T02560222 53007





000
SAUS44 KSHV 230255
MTRBKB
METAR KBKB 230254Z AUTO 00000KT 10SM FEW047 27/23 A3001 RMK AO2
SLP188 T02670228 51009





000
SAUS44 KSHV 230158
MTRAQV
METAR KAQV 230156Z AUTO 00000KT 10SM CLR 26/24 A3002 RMK AO2 SLP163
T02560239





000
SAUS44 KSHV 230157
MTRPOE
METAR KPOE 230155Z AUTO 02004KT 10SM CLR 27/22 A3003 RMK AO2 SLP168
T02720217





000
SAUS44 KSHV 230155
MTRBKB
METAR KBKB 230154Z AUTO 00000KT 10SM FEW047 27/24 A3001 RMK AO2
SLP186 T02670239





000
SAUS44 KSHV 230058
MTRAQV
METAR KAQV 230056Z AUTO 00000KT 10SM CLR 28/24 A3001 RMK AO2 SLP159
T02780244





000
SAUS44 KSHV 230057
MTRPOE
METAR KPOE 230055Z AUTO 00000KT 10SM CLR 28/22 A3001 RMK AO2 SLP164
T02830222





000
SAUS44 KSHV 230055
MTRBKB
METAR KBKB 230054Z AUTO 00000KT 10SM CLR 28/23 A2999 RMK AO2 SLP181
T02830233





000
SAUS44 KSHV 222358
MTRAQV
METAR KAQV 222356Z AUTO 00000KT 10SM FEW046 SCT060 BKN070 29/24
A3001 RMK AO2 SLP158 T02940239 10328 20294 55003





000
SAUS44 KSHV 222356
MTRPOE
METAR KPOE 222355Z AUTO 03004KT 10SM BKN080 30/21 A3001 RMK AO2
SLP163 T03000206 10322 20294 55002





000
SAUS44 KSHV 222355
MTRBKB
METAR KBKB 222354Z AUTO 00000KT 10SM CLR 32/21 A2998 RMK AO2 SLP178
T03170211 10333 20306 55003





000
SAUS44 KSHV 222259
MTRAQV
METAR KAQV 222256Z AUTO 05003KT 10SM FEW042 FEW049 BKN080 32/21
A3001 RMK AO2 SLP157 T03170211





000
SAUS44 KSHV 222256
MTRPOE
METAR KPOE 222255Z AUTO 34007KT 10SM CLR 31/20 A3000 RMK AO2 SLP160
T03110200





000
SAUS44 KSHV 222255
MTRBKB
METAR KBKB 222254Z AUTO VRB03KT 10SM BKN047 33/21 A2998 RMK AO2
SLP178 T03280206





000
SAUS44 KSHV 222157
MTRAQV
METAR KAQV 222156Z AUTO 00000KT 10SM SCT047 BKN060 32/21 A3001 RMK
AO2 SLP158 T03220206





000
SAUS44 KSHV 222157
MTRPOE
METAR KPOE 222155Z AUTO 04005KT 10SM CLR 32/19 A3002 RMK AO2 SLP164
T03170189





000
SAUS44 KSHV 222156
MTRBKB
METAR KBKB 222154Z AUTO VRB03KT 10SM FEW045 33/20 A2999 RMK AO2
SLP179 T03330200





000
SAUS44 KSHV 222058
MTRAQV
METAR KAQV 222056Z AUTO 11005KT 10SM FEW048 SCT055 SCT070 32/21
A3002 RMK AO2 SLP161 T03220206 58011





000
SAUS44 KSHV 222056
MTRBKB
METAR KBKB 222054Z AUTO 12004KT 10SM SCT047 33/20 A2999 RMK AO2
SLP182 T03280200 58013





000
SAUS44 KSHV 222056
MTRPOE
METAR KPOE 222055Z AUTO 35003KT 10SM FEW065 32/19 A3002 RMK AO2
SLP165 T03170194 58013





000
SAUS44 KSHV 221958
MTRAQV
METAR KAQV 221956Z AUTO 00000KT 10SM FEW047 SCT060 31/21 A3004 RMK
AO2 SLP167 T03060206





000
SAUS44 KSHV 221956
MTRPOE
METAR KPOE 221955Z AUTO 10SM FEW047 BKN060 31/19 A3004 RMK AO2
SLP173 T03110189 PWINO $





000
SAUS44 KSHV 221955
MTRBKB
METAR KBKB 221954Z AUTO VRB03KT 10SM FEW046 32/20 A3002 RMK AO2
SLP189 T03220200





000
SAUS44 KSHV 221857
MTRAQV
METAR KAQV 221856Z AUTO 00000KT 10SM SCT047 BKN060 32/19 A3005 RMK
AO2 SLP171 T03170194





000
SAUS44 KSHV 221856
MTRPOE
METAR KPOE 221855Z AUTO 02007KT 10SM BKN049 31/19 A3005 RMK AO2
SLP176 T03060189 PWINO $





000
SAUS44 KSHV 221856
MTRBKB
METAR KBKB 221854Z AUTO VRB03KT 10SM SCT060 32/20 A3003 RMK AO2
SLP193 T03220200





000
SAUS44 KSHV 221758
MTRAQV
METAR KAQV 221756Z AUTO 00000KT 10SM FEW043 31/19 A3005 RMK AO2
SLP172 T03110194 10317 20211 58000





000
SAUS44 KSHV 221757
MTRPOE
METAR KPOE 221755Z AUTO 35005KT 10SM FEW045 30/19 A3006 RMK AO2
SLP178 6//// T03000189 58003





000
SAUS44 KSHV 221755
MTRBKB
METAR KBKB 221754Z AUTO 03003KT 10SM FEW042 32/19 A3003 RMK AO2
SLP195 T03170194 10317 20228 58003





000
SAUS44 KSHV 221657
MTRAQV
METAR KAQV 221656Z AUTO 00000KT 10SM CLR 31/20 A3005 RMK AO2 SLP174
T03060200





000
SAUS44 KSHV 221656
MTRPOE
METAR KPOE 221655Z AUTO VRB04KT FEW041 30/19 A3006 RMK AO2 SLP179
T03000194





000
SAUS44 KSHV 221656
MTRBKB
METAR KBKB 221654Z AUTO 00000KT 10SM SCT039 31/20 A3004 RMK AO2
SLP196 T03060200





000
SAUS44 KSHV 221558
MTRAQV
METAR KAQV 221556Z AUTO 00000KT 10SM FEW030 30/21 A3006 RMK AO2
SLP175 T03000211





000
SAUS44 KSHV 221556
MTRBKB
METAR KBKB 221554Z AUTO 00000KT 10SM CLR 30/21 A3005 RMK AO2 SLP199
T03000206





000
SAUS44 KSHV 221556
MTRPOE
METAR KPOE 221555Z AUTO 00000KT 10SM FEW030 29/20 A3007 RMK AO2
SLP183 T02890200





000
SAUS44 KSHV 221458
MTRAQV
METAR KAQV 221456Z AUTO 06003KT 10SM CLR 28/22 A3005 RMK AO2 SLP173
T02830217 50002





000
SAUS44 KSHV 221456
MTRPOE
METAR KPOE 221455Z AUTO 09004KT 10SM CLR 28/22 A3007 RMK AO2 SLP181
T02830217 51007





000
SAUS44 KSHV 221455
MTRBKB
METAR KBKB 221454Z AUTO VRB03KT 10SM CLR 29/22 A3004 RMK AO2 SLP198
T02890217 52005





000
SAUS44 KSHV 221358
MTRAQV
METAR KAQV 221356Z AUTO VRB04KT 10SM CLR 26/22 A3005 RMK AO2 SLP174
T02610217





000
SAUS44 KSHV 221356
MTRPOE
METAR KPOE 221355Z AUTO 07005KT 10SM CLR 27/21 A3006 RMK AO2 SLP180
T02670211





000
SAUS44 KSHV 221355
MTRBKB
METAR KBKB 221354Z AUTO 00000KT 10SM CLR 27/22 A3004 RMK AO2 SLP197
T02720222





000
SAUS44 KSHV 221257
MTRAQV
METAR KAQV 221256Z AUTO 00000KT 9SM CLR 24/22 A3005 RMK AO2 SLP173
T02390217





000
SAUS44 KSHV 221256
MTRPOE
METAR KPOE 221255Z AUTO 00000KT 10SM CLR 24/21 A3005 RMK AO2 SLP176
T02440211





000
SAUS44 KSHV 221256
MTRBKB
METAR KBKB 221254Z AUTO 00000KT 10SM CLR 24/22 A3003 RMK AO2 SLP193
T02440217





000
SAUS44 KSHV 221158
MTRAQV
METAR KAQV 221156Z AUTO 00000KT 4SM BR CLR 21/20 A3004 RMK AO2
SLP170 7//// T02110200 10233 20211 51012





000
SAUS44 KSHV 221156
MTRPOE
METAR KPOE 221155Z AUTO 03003KT 10SM FEW045 23/21 A3005 RMK AO2
SLP174 T02280206 10250 20228 51011





000
SAUS44 KSHV 221155
MTRBKB
METAR KBKB 221154Z AUTO 00000KT 4SM BR CLR 23/21 A3003 RMK AO2
SLP193 T02280206 10244 20222 51012





000
SAUS44 KSHV 221058
MTRAQV
METAR KAQV 221056Z AUTO 00000KT 3SM BR SCT047 BKN055 22/21 A3004 RMK
AO2 SLP168 T02170206





000
SAUS44 KSHV 221056
MTRPOE
METAR KPOE 221055Z AUTO 00000KT 10SM FEW040 SCT046 23/21 A3004 RMK
AO2 SLP172 T02330211





000
SAUS44 KSHV 221055
MTRBKB
METAR KBKB 221054Z AUTO 00000KT 7SM FEW060 23/21 A3002 RMK AO2
SLP191 T02280211





000
SAUS44 KSHV 220957
MTRAQV
METAR KAQV 220956Z AUTO 00000KT 3SM BR FEW050 22/21 A3002 RMK AO2
SLP163 T02170206





000
SAUS44 KSHV 220956
MTRPOE
METAR KPOE 220955Z AUTO 00000KT 10SM SCT039 BKN047 BKN065 24/21
A3003 RMK AO2 SLP168 T02390206





000
SAUS44 KSHV 220955
MTRBKB
METAR KBKB 220954Z AUTO 00000KT 7SM OVC042 24/22 A3001 RMK AO2
SLP187 T02390217





000
SAUS44 KSHV 220940
MTRAQV
SPECI KAQV 220939Z AUTO 00000KT 2 1/2SM BR FEW055 22/21 A3002 RMK
AO2 T02170206





000
SAUS44 KSHV 220858
MTRAQV
METAR KAQV 220856Z AUTO 00000KT 4SM BR CLR 22/21 A3001 RMK AO2
SLP158 T02170206 58004





000
SAUS44 KSHV 220856
MTRPOE
METAR KPOE 220855Z AUTO 00000KT 10SM BKN050 OVC055 24/21 A3001 RMK
AO2 SLP163 T02390211 58004





000
SAUS44 KSHV 220855
MTRBKB
METAR KBKB 220854Z AUTO 00000KT 10SM FEW050 24/21 A2999 RMK AO2
SLP180 T02390211 58004





000
SAUS44 KSHV 220759
MTRAQV
METAR KAQV 220756Z AUTO 00000KT 5SM BR FEW050 22/21 A3003 RMK AO2
SLP164 T02220211





000
SAUS44 KSHV 220756
MTRPOE
METAR KPOE 220755Z AUTO 06003KT 10SM SCT036 BKN055 24/21 A3003 RMK
AO2 SLP168 T02440211





000
SAUS44 KSHV 220756
MTRBKB
METAR KBKB 220754Z AUTO 00000KT 6SM BR SCT041 BKN055 23/22 A3001 RMK
AO2 SLP186 T02330217





000
SAUS44 KSHV 220701 COR
MTRAQV
METAR KAQV 220656Z AUTO 00000KT 5SM BR FEW045 BKN060 23/22 A3003 RMK
AO2 SLP165 T02280217





000
SAUS44 KSHV 220657
MTRAQV
METAR KAQV 220656Z AUTO 00000KT 5SM BR FEW045 BKN060 23/22 A3003 RMK
AO2 SLP165 T02280217





000
SAUS44 KSHV 220656
MTRPOE
METAR KPOE 220655Z AUTO 00000KT 10SM BKN036 BKN060 24/21 A3003 RMK
AO2 SLP170 T02440211





000
SAUS44 KSHV 220655
MTRBKB
METAR KBKB 220654Z AUTO 00000KT 7SM FEW043 SCT060 24/22 A3002 RMK
AO2 SLP189 T02390217





000
SAUS44 KSHV 220557
MTRPOE
METAR KPOE 220555Z AUTO 09003KT 10SM BKN060 25/22 A3002 RMK AO2
SLP167 T02500217 10306 20250 51004





000
SAUS44 KSHV 220557
MTRAQV
METAR KAQV 220556Z AUTO 00000KT 6SM BR FEW055 23/22 A3002 RMK AO2
SLP162 T02330217 10300 20228 403280200 51005





000
SAUS44 KSHV 220555
MTRBKB
METAR KBKB 220554Z AUTO 00000KT 8SM BKN055 24/22 A3000 RMK AO2
SLP185 T02390217 10306 20239 403390211 50005





000
SAUS44 KSHV 220457
MTRAQV
METAR KAQV 220456Z AUTO 00000KT 6SM BR CLR 23/22 A3002 RMK AO2
SLP162 T02330222





000
SAUS44 KSHV 220456
MTRPOE
METAR KPOE 220455Z AUTO 08003KT 10SM OVC060 26/22 A3002 RMK AO2
SLP167 T02560217 403280211





000
SAUS44 KSHV 220455
MTRBKB
METAR KBKB 220454Z AUTO 00000KT 8SM FEW060 24/22 A3000 RMK AO2
SLP185 T02390217





000
SAUS44 KSHV 220357
MTRAQV
METAR KAQV 220356Z AUTO 00000KT 7SM CLR 24/23 A3001 RMK AO2 SLP159
T02390228





000
SAUS44 KSHV 220356
MTRPOE
METAR KPOE 220355Z AUTO 09003KT 10SM CLR 26/22 A3002 RMK AO2 SLP166
T02560217





000
SAUS44 KSHV 220355
MTRBKB
METAR KBKB 220354Z AUTO 00000KT 10SM CLR 25/22 A3000 RMK AO2 SLP183
T02500217





000
SAUS44 KSHV 220258
MTRAQV
METAR KAQV 220256Z AUTO 00000KT 7SM CLR 25/23 A3001 RMK AO2 SLP157
T02500228 53007





000
SAUS44 KSHV 220257
MTRPOE
METAR KPOE 220255Z AUTO 06004KT 10SM CLR 26/22 A3001 RMK AO2 SLP163
T02610222 53009





000
SAUS44 KSHV 220255
MTRBKB
METAR KBKB 220254Z AUTO 00000KT 10SM CLR 26/22 A2999 RMK AO2 SLP180
T02610222 53008





000
SAUS44 KSHV 220158
MTRAQV
METAR KAQV 220156Z AUTO 00000KT 8SM CLR 27/23 A3000 RMK AO2 SLP154
T02670233





000
SAUS44 KSHV 220157
MTRPOE
METAR KPOE 220155Z AUTO 06005KT 9SM CLR 27/23 A3000 RMK AO2 SLP158
T02720228





000
SAUS44 KSHV 220155
MTRBKB
METAR KBKB 220154Z AUTO 00000KT 10SM CLR 27/23 A2998 RMK AO2 SLP177
T02720228





000
SAUS44 KSHV 220057
MTRAQV
METAR KAQV 220056Z AUTO 02003KT 8SM CLR 28/23 A2999 RMK AO2 SLP151
T02830228





000
SAUS44 KSHV 220057
MTRPOE
METAR KPOE 220055Z AUTO 05003KT 9SM CLR 29/23 A2999 RMK AO2 SLP155
T02890228





000
SAUS44 KSHV 220056
MTRBKB
METAR KBKB 220054Z AUTO 00000KT 9SM CLR 28/23 A2997 RMK AO2 SLP173
T02830233





000
SAUS44 KSHV 212357
MTRAQV
METAR KAQV 212356Z AUTO 36005KT 8SM CLR 30/22 A2999 RMK AO2 SLP150
T03000222 10328 20300 58006





000
SAUS44 KSHV 212357
MTRPOE
METAR KPOE 212355Z AUTO 02004KT 10SM CLR 31/22 A2998 RMK AO2 SLP154
T03060222 10328 20300 56007





000
SAUS44 KSHV 212355
MTRBKB
METAR KBKB 212354Z AUTO VRB03KT 10SM CLR 31/23 A2997 RMK AO2 SLP172
T03060228 10339 20306 56005





000
SAUS44 KSHV 212257
MTRAQV
METAR KAQV 212256Z AUTO VRB05KT 8SM CLR 32/22 A2999 RMK AO2 SLP152
T03170222





000
SAUS44 KSHV 212256
MTRPOE
METAR KPOE 212255Z AUTO 01005KT 10SM CLR 32/22 A2999 RMK AO2 SLP155
T03170222





000
SAUS44 KSHV 212255
MTRBKB
METAR KBKB 212254Z AUTO VRB04KT 10SM CLR 33/23 A2997 RMK AO2 SLP172
T03280228





000
SAUS44 KSHV 212157
MTRAQV
METAR KAQV 212156Z AUTO 01005KT 9SM SCT038 SCT055 32/23 A3000 RMK
AO2 SLP156 T03170228





000
SAUS44 KSHV 212156
MTRPOE
METAR KPOE 212155Z AUTO 36007KT 10SM CLR 32/22 A3000 RMK AO2 SLP157
T03220217





000
SAUS44 KSHV 212155
MTRBKB
METAR KBKB 212154Z AUTO 02004KT 10SM FEW047 33/22 A2998 RMK AO2
SLP176 T03280222





000
SAUS44 KSHV 212058
MTRAQV
METAR KAQV 212056Z AUTO VRB04KT 10SM FEW040 SCT048 BKN065 32/23
A3000 RMK AO2 SLP156 T03220228 58017





000
SAUS44 KSHV 212057
MTRPOE
METAR KPOE 212055Z AUTO VRB04KT 10SM CLR 32/22 A3001 RMK AO2 SLP161
T03220217 58018





000
SAUS44 KSHV 212056
MTRBKB
METAR KBKB 212054Z AUTO 36004KT 10SM FEW046 33/22 A2998 RMK AO2
SLP178 T03330217 58017





000
SAUS44 KSHV 211957
MTRAQV
METAR KAQV 211956Z AUTO 00000KT 9SM FEW039 BKN055 32/23 A3002 RMK
AO2 SLP163 T03220228





000
SAUS44 KSHV 211956
MTRBKB
METAR KBKB 211954Z AUTO VRB04KT 10SM FEW065 33/22 A3000 RMK AO2
SLP184 T03330217





000
SAUS44 KSHV 211956
MTRPOE
METAR KPOE 211955Z AUTO 34004G14KT 10SM SCT043 32/21 A3003 RMK AO2
SLP168 T03220206





000
SAUS44 KSHV 211857
MTRAQV
METAR KAQV 211856Z AUTO VRB03KT 10SM FEW037 SCT055 31/22 A3004 RMK
AO2 SLP167 T03110222





000
SAUS44 KSHV 211856
MTRBKB
METAR KBKB 211854Z AUTO 00000KT 10SM FEW035 SCT042 SCT055 33/22
A3001 RMK AO2 SLP189 T03280222





000
SAUS44 KSHV 211856
MTRPOE
METAR KPOE 211855Z AUTO 30006KT 10SM FEW035 31/22 A3004 RMK AO2
SLP173 T03110217





000
SAUS44 KSHV 211759
MTRAQV
METAR KAQV 211756Z AUTO 00000KT 10SM SCT029 BKN042 BKN055 31/23
A3005 RMK AO2 SLP174 6//// T03110228 10311 20206 58003





000
SAUS44 KSHV 211757
MTRPOE
METAR KPOE 211755Z AUTO 34005KT 10SM SCT030 31/23 A3006 RMK AO2
SLP179 T03060228 10306 20217 58004





000
SAUS44 KSHV 211756
MTRBKB
METAR KBKB 211754Z AUTO VRB03KT 10SM FEW033 32/22 A3003 RMK AO2
SLP194 T03170222 10322 20211 58004





000
SAUS44 KSHV 211705
MTRBKB
SPECI KBKB 211703Z AUTO 34004KT 10SM SCT027 BKN036 31/23 A3004 RMK
AO2 T03110233





000
SAUS44 KSHV 211657
MTRAQV
METAR KAQV 211656Z AUTO 01008KT 10SM SCT026 31/23 A3006 RMK AO2
SLP176 T03060233





000
SAUS44 KSHV 211657
MTRPOE
METAR KPOE 211655Z AUTO 33005KT 10SM SCT023 29/23 A3007 RMK AO2
SLP182 T02940228





000
SAUS44 KSHV 211656
MTRBKB
METAR KBKB 211654Z AUTO 33004KT 10SM BKN027 31/23 A3004 RMK AO2
SLP199 T03110233





000
SAUS44 KSHV 211653
MTRPOE
SPECI KPOE 211652Z AUTO 33004KT 10SM BKN023 29/23 A3007 RMK AO2





000
SAUS44 KSHV 211558
MTRAQV
METAR KAQV 211556Z AUTO 00000KT 10SM CLR 29/22 A3006 RMK AO2 SLP177
T02940222





000
SAUS44 KSHV 211556
MTRBKB
METAR KBKB 211554Z AUTO 06003KT 10SM CLR 30/23 A3004 RMK AO2 SLP198
T03000228





000
SAUS44 KSHV 211556
MTRPOE
METAR KPOE 211555Z AUTO 32003KT 10SM CLR 28/23 A3007 RMK AO2 SLP183
T02830228





000
SAUS44 KSHV 211457
MTRAQV
METAR KAQV 211456Z AUTO 00000KT 10SM CLR 27/22 A3006 RMK AO2 SLP177
6//// T02720222 51008





000
SAUS44 KSHV 211457
MTRPOE
METAR KPOE 211455Z AUTO 00000KT 10SM CLR 28/22 A3007 RMK AO2 SLP182
T02780222 51011





000
SAUS44 KSHV 211456
MTRBKB
METAR KBKB 211454Z AUTO 00000KT 10SM CLR 28/22 A3004 RMK AO2 SLP199
T02830217 50009





000
SAUS44 KSHV 211359
MTRAQV
METAR KAQV 211356Z AUTO 07004KT 10SM FEW023 25/22 A3006 RMK AO2
SLP177 T02500217





000
SAUS44 KSHV 211356
MTRPOE
METAR KPOE 211355Z AUTO 07003KT 10SM CLR 25/22 A3006 RMK AO2 SLP181
T02500217





000
SAUS44 KSHV 211356
MTRBKB
METAR KBKB 211354Z AUTO 00000KT 10SM CLR 26/22 A3004 RMK AO2 SLP199
T02610222





000
SAUS44 KSHV 211257
MTRAQV
METAR KAQV 211256Z AUTO 00000KT 5SM BR CLR 23/21 A3004 RMK AO2
SLP171 T02280211 PNO $





000
SAUS44 KSHV 211256
MTRPOE
METAR KPOE 211255Z AUTO 03004KT 10SM CLR 23/21 A3005 RMK AO2 SLP176
T02280211





000
SAUS44 KSHV 211255
MTRBKB
METAR KBKB 211254Z AUTO VRB03KT 9SM CLR 23/21 A3003 RMK AO2 SLP194
T02330211





000
SAUS44 KSHV 211214
MTRAQV
SPECI KAQV 211213Z AUTO 00000KT 3SM BR SCT040 BKN050 21/20 A3004 RMK
AO2 T02110200 PNO $





000
SAUS44 KSHV 211157
MTRPOE
METAR KPOE 211155Z AUTO 00000KT 9SM CLR 22/21 A3004 RMK AO2 SLP171
T02170211 10222 20211 53010 $





000
SAUS44 KSHV 211157
MTRAQV
METAR KAQV 211156Z AUTO 00000KT 2 1/2SM BR FEW022 BKN040 BKN049
21/19 A3004 RMK AO2 SLP169 6//// 7//// T02060194 10217 20200 51012
PNO $





000
SAUS44 KSHV 211155
MTRBKB
METAR KBKB 211154Z AUTO 00000KT 4SM BR CLR 21/19 A3002 RMK AO2
SLP190 T02110194 10222 20211 53010





000
SAUS44 KSHV 211153
MTRAQV
SPECI KAQV 211152Z AUTO 00000KT 3SM BR FEW022 SCT038 BKN049 20/19
A3004 RMK AO2 PNO $





000
SAUS44 KSHV 211137
MTRAQV
SPECI KAQV 211136Z AUTO 00000KT 2 1/2SM BR FEW022 20/19 A3004 RMK
AO2 T02000189 PNO $





000
SAUS44 KSHV 211059
MTRAQV
METAR KAQV 211056Z AUTO 00000KT 3SM BR CLR 20/19 A3002 RMK AO2
SLP162 T02000189 PNO $





000
SAUS44 KSHV 211056
MTRPOE
METAR KPOE 211055Z AUTO 00000KT 10SM CLR 22/21 A3002 RMK AO2 SLP165
T02170206 $





000
SAUS44 KSHV 211056
MTRBKB
METAR KBKB 211054Z AUTO 00000KT 4SM BR CLR 21/19 A3000 RMK AO2
SLP184 T02110194





000
SAUS44 KSHV 210957
MTRPOE
METAR KPOE 210955Z AUTO 11003KT 10SM CLR 22/21 A3001 RMK AO2 SLP162
T02220211 $





000
SAUS44 KSHV 210957
MTRAQV
METAR KAQV 210956Z AUTO 00000KT 3SM BR CLR 21/19 A3001 RMK AO2
SLP157 T02060194 PNO $





000
SAUS44 KSHV 210955
MTRBKB
METAR KBKB 210954Z AUTO 00000KT 5SM BR CLR 22/21 A2999 RMK AO2
SLP180 T02220206





000
SAUS44 KSHV 210858
MTRAQV
METAR KAQV 210856Z AUTO 00000KT 3SM BR CLR 21/20 A3000 RMK AO2
SLP156 6//// T02110200 53005 PNO $





000
SAUS44 KSHV 210856
MTRPOE
METAR KPOE 210855Z AUTO 00000KT 10SM CLR 22/21 A3001 RMK AO2 SLP161
T02220206 53004 $





000
SAUS44 KSHV 210855
MTRBKB
METAR KBKB 210854Z AUTO 00000KT 6SM BR BKN038 22/21 A2999 RMK AO2
SLP179 T02220206 53005





000
SAUS44 KSHV 210757
MTRAQV
METAR KAQV 210756Z AUTO 00000KT 4SM BR CLR 21/20 A2999 RMK AO2
SLP153 T02110200 PNO $





000
SAUS44 KSHV 210756
MTRPOE
METAR KPOE 210755Z AUTO 00000KT 8SM CLR 21/20 A3000 RMK AO2 SLP160
T02110200 $





000
SAUS44 KSHV 210755
MTRBKB
METAR KBKB 210754Z AUTO 00000KT 4SM BR CLR 22/20 A2998 RMK AO2
SLP178 T02170200





000
SAUS44 KSHV 210657
MTRAQV
METAR KAQV 210656Z AUTO 00000KT 3SM BR CLR 21/21 A2999 RMK AO2
SLP151 T02110206 PNO $





000
SAUS44 KSHV 210656
MTRPOE
METAR KPOE 210655Z AUTO 00000KT 9SM CLR 22/21 A2999 RMK AO2 SLP157
T02220206 $





000
SAUS44 KSHV 210655
MTRBKB
METAR KBKB 210654Z AUTO 00000KT 4SM BR CLR 22/20 A2997 RMK AO2
SLP174 T02170200





000
SAUS44 KSHV 210620
MTRAQV
SPECI KAQV 210619Z AUTO 00000KT 3SM BR CLR 21/21 A2998 RMK AO2
T02110206 PNO $





000
SAUS44 KSHV 210612
MTRAQV
SPECI KAQV 210611Z AUTO 00000KT 2 1/2SM BR CLR 21/21 A2998 RMK AO2
T02110206 PNO $





000
SAUS44 KSHV 210557
MTRAQV
METAR KAQV 210556Z AUTO 00000KT 3SM BR CLR 22/21 A2999 RMK AO2
SLP150 6//// T02170206 10294 20217 403060211 51002 PNO $





000
SAUS44 KSHV 210556
MTRPOE
METAR KPOE 210555Z AUTO 00000KT 10SM CLR 22/21 A2999 RMK AO2 SLP157
T02220211 10289 20222 51003 $





000
SAUS44 KSHV 210556
MTRBKB
METAR KBKB 210554Z AUTO 00000KT 4SM BR CLR 22/21 A2997 RMK AO2
SLP174 T02220206 10300 20222 403220217 51003





000
SAUS44 KSHV 210457
MTRAQV
METAR KAQV 210456Z AUTO 00000KT 3SM BR CLR 22/21 A2999 RMK AO2
SLP150 T02220211 PNO $





000
SAUS44 KSHV 210456
MTRPOE
METAR KPOE 210455Z AUTO 00000KT 10SM CLR 23/21 A2999 RMK AO2 SLP156
T02280211 403000206 $





000
SAUS44 KSHV 210455
MTRBKB
METAR KBKB 210454Z AUTO 00000KT 5SM BR CLR 23/21 A2997 RMK AO2
SLP174 T02280206





000
SAUS44 KSHV 210359
MTRAQV
METAR KAQV 210356Z AUTO 00000KT 5SM BR CLR 23/22 A2999 RMK AO2
SLP151 T02280217 PNO $





000
SAUS44 KSHV 210356
MTRBKB
METAR KBKB 210354Z AUTO 00000KT 7SM CLR 23/21 A2997 RMK AO2 SLP174
T02330211





000
SAUS44 KSHV 210356
MTRPOE
METAR KPOE 210355Z AUTO 00000KT 10SM CLR 23/21 A2999 RMK AO2 SLP157
T02280211 $





000
SAUS44 KSHV 210257
MTRPOE
METAR KPOE 210255Z AUTO 00000KT 10SM CLR 24/22 A2998 RMK AO2 SLP153
T02390217 53002 $





000
SAUS44 KSHV 210257
MTRAQV
METAR KAQV 210256Z AUTO 00000KT 6SM BR CLR 23/22 A2998 RMK AO2
SLP150 6//// T02330217 53004 PNO $





000
SAUS44 KSHV 210255
MTRBKB
METAR KBKB 210254Z AUTO 00000KT 9SM CLR 24/22 A2996 RMK AO2 SLP171
T02390217 53004





000
SAUS44 KSHV 210157
MTRAQV
METAR KAQV 210156Z AUTO 00000KT 9SM CLR 24/22 A2997 RMK AO2 SLP146
T02390222 PNO $





000
SAUS44 KSHV 210156
MTRPOE
METAR KPOE 210155Z AUTO 01003KT 10SM CLR 24/22 A2997 RMK AO2 SLP151
T02390217 $





000
SAUS44 KSHV 210155
MTRBKB
METAR KBKB 210154Z AUTO 00000KT 10SM CLR 25/23 A2995 RMK AO2 SLP169
T02500228





000
SAUS44 KSHV 210057
MTRAQV
METAR KAQV 210056Z AUTO 00000KT 10SM CLR 26/22 A2997 RMK AO2 SLP147
T02610222 PNO $





000
SAUS44 KSHV 210056
MTRPOE
METAR KPOE 210055Z AUTO 00000KT 10SM CLR 27/22 A2998 RMK AO2 SLP152
T02720217 $





000
SAUS44 KSHV 210055
MTRBKB
METAR KBKB 210054Z AUTO 00000KT 10SM CLR 27/22 A2995 RMK AO2 SLP167
T02720222





000
SAUS44 KSHV 202358
MTRAQV
METAR KAQV 202356Z AUTO 00000KT 10SM CLR 29/21 A2997 RMK AO2 SLP145
6//// T02940206 10306 20283 56004 PNO $





000
SAUS44 KSHV 202356
MTRPOE
METAR KPOE 202355Z AUTO 35003KT 10SM CLR 29/21 A2998 RMK AO2 SLP151
T02890206 10300 20278 56003 $





000
SAUS44 KSHV 202355
MTRBKB
METAR KBKB 202354Z AUTO 00000KT 10SM CLR 30/22 A2995 RMK AO2 SLP167
T03000217 10322 20294 58002





000
SAUS44 KSHV 202257
MTRAQV
METAR KAQV 202256Z AUTO VRB04KT 10SM FEW037 29/20 A2997 RMK AO2
SLP145 T02940200 PNO $





000
SAUS44 KSHV 202256
MTRPOE
METAR KPOE 202255Z AUTO 34005KT 10SM FEW045 29/20 A2998 RMK AO2
SLP151 T02940200 $





000
SAUS44 KSHV 202255
MTRBKB
METAR KBKB 202254Z AUTO 00000KT 10SM CLR 31/20 A2995 RMK AO2 SLP166
T03110200





000
SAUS44 KSHV 202157
MTRAQV
METAR KAQV 202156Z AUTO 00000KT 10SM CLR 29/21 A2998 RMK AO2 SLP147
T02940206 PNO $





000
SAUS44 KSHV 202156
MTRPOE
METAR KPOE 202155Z AUTO 32005KT 10SM FEW040 29/19 A2998 RMK AO2
SLP154 T02940194 $





000
SAUS44 KSHV 202155
MTRBKB
METAR KBKB 202154Z AUTO VRB03KT 10SM SCT040 32/21 A2996 RMK AO2
SLP169 T03170211





000
SAUS44 KSHV 202057
MTRAQV
METAR KAQV 202056Z AUTO 34004KT 10SM BKN040 31/21 A2998 RMK AO2
SLP149 6//// T03060206 56012 PNO $





000
SAUS44 KSHV 202056
MTRBKB
METAR KBKB 202054Z AUTO 00000KT 10SM BKN045 31/21 A2995 RMK AO2
SLP168 T03110206 56014





000
SAUS44 KSHV 202056
MTRPOE
METAR KPOE 202055Z AUTO VRB05KT 10SM CLR 30/19 A2999 RMK AO2 SLP154
T03000194 56013 $





    US Dept of Commerce
    National Oceanic and Atmospheric Administration
    National Weather Service
    1325 East West Highway
    Silver Spring, MD 20910
    Page Author: NWS Internet Services Team
Disclaimer
Information Quality
Credits
Glossary
Privacy Policy
Freedom of Information Act (FOIA)
About Us
Career Opportunities